createdAt,value
2019-04-11T00:02:10.436Z,1014.42
2019-04-11T00:07:07.853Z,1014.55
2019-04-11T00:12:03.272Z,1014.62
2019-04-11T00:16:59.105Z,1014.64
2019-04-11T00:21:55.874Z,1014.68
2019-04-11T00:26:51.214Z,1014.64
2019-04-11T00:36:52.920Z,1014.62
2019-04-11T00:41:48.315Z,1014.68
2019-04-11T00:46:44.609Z,1014.71
2019-04-11T00:51:40.227Z,1014.70
2019-04-11T00:56:37.648Z,1014.79
2019-04-11T01:01:33.671Z,1014.78
2019-04-11T01:06:30.153Z,1014.82
2019-04-11T01:11:26.198Z,1014.79
2019-04-11T01:16:21.858Z,1014.91
2019-04-11T01:21:17.900Z,1014.82
2019-04-11T01:31:15.626Z,1014.88
2019-04-11T01:36:12.686Z,1014.88
2019-04-11T01:41:08.173Z,1014.95
2019-04-11T01:46:03.844Z,1014.87
2019-04-11T01:50:59.663Z,1014.99
2019-04-11T01:55:56.804Z,1015.02
2019-04-11T02:00:52.567Z,1015.06
2019-04-11T02:05:49.413Z,1015.09
2019-04-11T02:10:45.302Z,1015.06
2019-04-11T02:15:41.576Z,1015.12
2019-04-11T02:20:36.987Z,1015.16
2019-04-11T02:25:33.507Z,1015.10
2019-04-11T02:30:30.524Z,1015.24
2019-04-11T02:35:26.960Z,1015.23
2019-04-11T02:40:24.612Z,1015.29
2019-04-11T02:45:32.674Z,1015.28
2019-04-11T02:50:21.950Z,1015.33
2019-04-11T02:55:19.199Z,1015.33
2019-04-11T03:00:15.927Z,1015.34
2019-04-11T03:05:13.604Z,1015.25
2019-04-11T03:10:09.891Z,1015.35
2019-04-11T03:15:24.140Z,1015.41
2019-04-11T03:20:15.436Z,1015.35
2019-04-11T03:25:06.114Z,1015.38
2019-04-11T03:30:03.234Z,1015.37
2019-04-11T03:35:50.874Z,1015.49
2019-04-11T03:40:19.058Z,1015.46
2019-04-11T03:45:15.242Z,1015.46
2019-04-11T03:50:01.596Z,1015.47
2019-04-11T03:54:56.007Z,1015.50
2019-04-11T03:59:52.164Z,1015.55
2019-04-11T04:04:49.392Z,1015.54
2019-04-11T04:09:46.318Z,1015.62
2019-04-11T04:14:44.540Z,1015.61
2019-04-11T04:24:41.349Z,1015.69
2019-04-11T04:29:38.007Z,1015.78
2019-04-11T04:34:33.984Z,1015.79
2019-04-11T04:39:31.510Z,1015.90
2019-04-11T04:44:26.751Z,1015.92
2019-04-11T04:49:23.716Z,1016.01
2019-04-11T04:54:21.991Z,1016.09
2019-04-11T04:59:17.176Z,1016.21
2019-04-11T05:04:13.971Z,1016.19
2019-04-11T05:09:10.741Z,1016.22
2019-04-11T05:14:07.266Z,1016.26
2019-04-11T05:19:02.666Z,1016.28
2019-04-11T05:23:58.532Z,1016.29
2019-04-11T05:28:55.216Z,1016.31
2019-04-11T05:33:51.824Z,1016.41
2019-04-11T05:38:48.545Z,1016.45
2019-04-11T05:43:43.808Z,1016.50
2019-04-11T05:48:39.541Z,1016.45
2019-04-11T05:53:36.960Z,1016.50
2019-04-11T05:58:33.152Z,1016.53
2019-04-11T06:03:30.138Z,1016.61
2019-04-11T06:08:28.526Z,1016.56
2019-04-11T06:13:24.729Z,1016.63
2019-04-11T06:18:26.927Z,1016.65
2019-04-11T06:23:23.373Z,1016.66
2019-04-11T06:28:19.957Z,1016.77
2019-04-11T06:33:16.479Z,1016.79
2019-04-11T06:38:11.769Z,1016.86
2019-04-11T06:43:07.883Z,1016.91
2019-04-11T06:48:03.786Z,1017.00
2019-04-11T06:53:00.293Z,1017.07
2019-04-11T06:57:56.446Z,1017.03
2019-04-11T07:02:54.975Z,1017.07
2019-04-11T07:07:51.605Z,1017.07
2019-04-11T07:12:47.232Z,1017.04
2019-04-11T07:17:43.815Z,1017.04
2019-04-11T07:22:39.380Z,1017.06
2019-04-11T07:27:36.565Z,1017.18
2019-04-11T07:32:32.044Z,1017.09
2019-04-11T07:37:28.158Z,1017.09
2019-04-11T07:42:23.926Z,1017.09
2019-04-11T07:47:26.422Z,1017.24
2019-04-11T07:52:22.121Z,1017.21
2019-04-11T07:57:17.854Z,1017.22
2019-04-11T08:02:14.609Z,1017.29
2019-04-11T08:07:10.926Z,1017.20
2019-04-11T08:12:06.664Z,1017.19
2019-04-11T08:17:03.799Z,1017.23
2019-04-11T08:22:01.537Z,1017.34
2019-04-11T08:26:58.798Z,1017.39
2019-04-11T08:31:56.605Z,1017.33
2019-04-11T08:36:52.621Z,1017.43
2019-04-11T08:41:49.635Z,1017.31
2019-04-11T08:46:44.910Z,1017.39
2019-04-11T08:51:41.164Z,1017.29
2019-04-11T08:56:36.844Z,1017.46
2019-04-11T09:01:32.908Z,1017.44
2019-04-11T09:06:28.876Z,1017.41
2019-04-11T09:11:25.238Z,1017.41
2019-04-11T09:16:21.605Z,1017.36
2019-04-11T09:21:18.532Z,1017.35
2019-04-11T09:26:15.982Z,1017.27
2019-04-11T09:31:14.008Z,1017.34
2019-04-11T09:36:09.947Z,1017.40
2019-04-11T09:41:06.130Z,1017.31
2019-04-11T09:46:03.300Z,1017.33
2019-04-11T09:50:58.864Z,1017.35
2019-04-11T09:55:54.364Z,1017.32
2019-04-11T10:00:51.237Z,1017.31
2019-04-11T10:05:48.595Z,1017.36
2019-04-11T10:10:46.612Z,1017.42
2019-04-11T10:15:45.189Z,1017.39
2019-04-11T10:20:42.628Z,1017.48
2019-04-11T10:25:40.259Z,1017.43
2019-04-11T10:30:35.699Z,1017.41
2019-04-11T10:35:32.535Z,1017.29
2019-04-11T10:40:28.139Z,1017.25
2019-04-11T10:45:22.813Z,1017.35
2019-04-11T10:50:21.733Z,1017.29
2019-04-11T10:55:17.711Z,1017.22
2019-04-11T11:00:15.667Z,1017.29
2019-04-11T11:05:12.820Z,1017.35
2019-04-11T11:10:09.228Z,1017.32
2019-04-11T11:15:05.527Z,1017.24
2019-04-11T11:20:11.964Z,1017.23
2019-04-11T11:25:02.303Z,1017.34
2019-04-11T11:29:58.116Z,1017.39
2019-04-11T11:34:54.898Z,1017.39
2019-04-11T11:39:51.100Z,1017.46
2019-04-11T11:44:46.712Z,1017.47
2019-04-11T11:49:51.741Z,1017.49
2019-04-11T11:54:41.784Z,1017.42
2019-04-11T11:59:38.477Z,1017.45
2019-04-11T12:04:36.079Z,1017.45
2019-04-11T12:09:34.196Z,1017.40
2019-04-11T12:14:29.799Z,1017.46
2019-04-11T12:19:26.874Z,1017.41
2019-04-11T12:24:22.969Z,1017.48
2019-04-11T12:29:18.628Z,1017.38
2019-04-11T12:34:15.027Z,1017.39
2019-04-11T12:39:11.774Z,1017.45
2019-04-11T12:44:08.327Z,1017.35
2019-04-11T12:49:03.703Z,1017.37
2019-04-11T12:53:59.334Z,1017.35
2019-04-11T12:58:56.403Z,1017.27
2019-04-11T13:03:52.193Z,1017.27
2019-04-11T13:08:47.848Z,1017.32
2019-04-11T13:13:43.422Z,1017.37
2019-04-11T13:18:38.801Z,1017.27
2019-04-11T13:23:34.474Z,1017.20
2019-04-11T13:28:30.638Z,1017.37
2019-04-11T13:33:27.394Z,1017.31
2019-04-11T13:38:23.134Z,1017.28
2019-04-11T13:43:19.218Z,1017.29
2019-04-11T13:48:16.129Z,1017.27
2019-04-11T13:53:11.753Z,1017.25
2019-04-11T13:58:07.673Z,1017.18
2019-04-11T14:03:04.431Z,1017.14
2019-04-11T14:08:00.946Z,1017.10
2019-04-11T14:12:56.279Z,1017.04
2019-04-11T14:17:52.162Z,1017.03
2019-04-11T14:22:47.688Z,1017.06
2019-04-11T14:27:44.399Z,1016.96
2019-04-11T14:32:39.838Z,1017.02
2019-04-11T14:37:38.550Z,1016.99
2019-04-11T14:42:34.613Z,1017.03
2019-04-11T14:47:30.204Z,1016.98
2019-04-11T14:52:25.897Z,1016.99
2019-04-11T14:57:23.178Z,1016.96
2019-04-11T15:02:19.943Z,1016.96
2019-04-11T15:07:15.660Z,1016.99
2019-04-11T15:12:11.373Z,1017.03
2019-04-11T15:17:06.990Z,1017.00
2019-04-11T15:22:03.940Z,1016.94
2019-04-11T15:27:01.985Z,1016.85
2019-04-11T15:32:00.554Z,1016.93
2019-04-11T15:36:58.483Z,1017.00
2019-04-11T15:42:01.871Z,1016.93
2019-04-11T15:46:52.682Z,1016.95
2019-04-11T15:51:49.811Z,1017.08
2019-04-11T15:56:45.388Z,1017.12
2019-04-11T16:01:42.102Z,1017.18
2019-04-11T16:06:38.987Z,1017.15
2019-04-11T16:11:34.612Z,1017.11
2019-04-11T16:16:30.307Z,1017.26
2019-04-11T16:21:26.203Z,1017.21
2019-04-11T16:26:21.939Z,1017.28
2019-04-11T16:31:17.652Z,1017.29
2019-04-11T16:36:14.361Z,1017.30
2019-04-11T16:41:10.860Z,1017.29
2019-04-11T16:46:06.462Z,1017.40
2019-04-11T16:51:02.546Z,1017.43
2019-04-11T16:55:58.473Z,1017.49
2019-04-11T17:00:55.314Z,1017.49
2019-04-11T17:05:55.750Z,1017.47
2019-04-11T17:10:50.257Z,1017.44
2019-04-11T17:15:45.864Z,1017.44
2019-04-11T17:20:41.377Z,1017.50
2019-04-11T17:25:37.174Z,1017.57
2019-04-11T17:30:33.992Z,1017.55
2019-04-11T17:35:31.720Z,1017.67
2019-04-11T17:40:27.564Z,1017.67
2019-04-11T17:45:23.311Z,1017.67
2019-04-11T17:50:19.188Z,1017.68
2019-04-11T17:55:15.359Z,1017.68
2019-04-11T18:00:11.367Z,1017.67
2019-04-11T18:05:06.926Z,1017.67
2019-04-11T18:10:02.741Z,1017.74
2019-04-11T18:14:59.878Z,1017.74
2019-04-11T18:19:56.835Z,1017.86
2019-04-11T18:24:52.452Z,1017.92
2019-04-11T18:29:52.599Z,1017.88
2019-04-11T18:34:47.798Z,1017.88
2019-04-11T18:39:44.530Z,1017.97
2019-04-11T18:44:41.251Z,1017.98
2019-04-11T18:49:36.457Z,1018.01
2019-04-11T18:54:32.018Z,1018.03
2019-04-11T18:59:27.758Z,1018.12
2019-04-11T19:04:32.251Z,1018.10
2019-04-11T19:09:22.831Z,1018.09
2019-04-11T19:14:18.708Z,1018.14
2019-04-11T19:19:18.005Z,1018.23
2019-04-11T19:24:13.124Z,1018.14
2019-04-11T19:29:09.471Z,1018.20
2019-04-11T19:34:08.599Z,1018.18
2019-04-11T19:39:05.947Z,1018.15
2019-04-11T19:44:02.090Z,1018.13
2019-04-11T19:48:59.415Z,1018.16
2019-04-11T19:53:55.804Z,1018.11
2019-04-11T19:58:51.147Z,1018.15
2019-04-11T20:03:47.176Z,1018.13
2019-04-11T20:08:42.789Z,1018.21
2019-04-11T20:13:38.491Z,1018.15
2019-04-11T20:18:34.305Z,1018.20
2019-04-11T20:23:29.882Z,1018.21
2019-04-11T20:28:26.904Z,1018.26
2019-04-11T20:33:27.418Z,1018.24
2019-04-11T20:38:21.366Z,1018.17
2019-04-11T20:43:17.713Z,1018.24
2019-04-11T20:48:13.158Z,1018.13
2019-04-11T20:53:12.832Z,1018.15
2019-04-11T20:58:10.119Z,1018.18
2019-04-11T21:03:05.920Z,1018.29
2019-04-11T21:08:04.679Z,1018.25
2019-04-11T21:12:59.452Z,1018.24
2019-04-11T21:17:56.060Z,1018.34
2019-04-11T21:22:53.999Z,1018.35
2019-04-11T21:27:50.622Z,1018.46
2019-04-11T21:32:45.865Z,1018.47
2019-04-11T21:37:41.779Z,1018.54
2019-04-11T21:42:38.428Z,1018.57
2019-04-11T21:47:37.087Z,1018.45
2019-04-11T21:52:32.643Z,1018.50
2019-04-11T21:57:29.370Z,1018.49
2019-04-11T22:02:25.638Z,1018.58
2019-04-11T22:07:22.253Z,1018.59
2019-04-11T22:12:17.983Z,1018.56
2019-04-11T22:17:15.877Z,1018.50
2019-04-11T22:22:10.965Z,1018.53
2019-04-11T22:27:06.781Z,1018.50
2019-04-11T22:32:02.565Z,1018.54
2019-04-11T22:36:59.967Z,1018.59
2019-04-11T22:41:55.595Z,1018.68
2019-04-11T22:46:51.502Z,1018.53
2019-04-11T22:51:47.553Z,1018.64
2019-04-11T22:56:44.083Z,1018.61
2019-04-11T23:01:39.761Z,1018.59
2019-04-11T23:06:36.403Z,1018.59
2019-04-11T23:11:32.024Z,1018.65
2019-04-11T23:16:27.525Z,1018.59
2019-04-11T23:21:23.170Z,1018.62
2019-04-11T23:26:19.849Z,1018.65
2019-04-11T23:31:15.351Z,1018.69
2019-04-11T23:36:10.957Z,1018.80
2019-04-11T23:41:06.811Z,1018.74
2019-04-11T23:46:02.360Z,1018.72
2019-04-11T23:50:58.807Z,1018.74
2019-04-11T23:55:54.056Z,1018.75
